Deering (New), AK

03:57 AKDT le 21 octobre 2014 (GMT -0800)
Wien Memorial | Change Station
CLOSE
Current Station
Aéroport
Location: Kotzebue,
Altitude: 16 ft
Stations météo à proximité

Alt. 16 ft 66.88 °N, 162.60 °W | Updated 4 minutes ago

Overcast
Couvert
30 ° F
Paraît 30 ° F
N
0
Vent Variable Vent de Nord

Aujourd'hui
Haut(e) -- | Bas -- ° F
--% Risque de précip.
Hier
Haut(e) -- | Bas -- ° F
Precip. -- pouce
10:08 AM 7:01 PM
Lune descendante, 6% visible
Pression 29.49 pouce
Visibilité 10.0 Miles terrestres
Nuages Couvert 6000 ft
Point de rosée 23 ° F
Humidité 75%
Précipitations 0.00 pouce
Profondeur de la couche neigeuse Non disponible.
UV 0 sur 12
Pollen Non disponible.
Qualité de l'air Non disponible.
Flu Activity Sporadic
METAR PAOT 211153Z 00000KT 10SM OVC060 M01/M05 A2949 RMK AO2 SLP987 T10111050 11006 21017 53013

More Conditions Fewer Conditions

Pression 29.49 pouce
Visibilité 10.0 Miles terrestres
Nuages Couvert 6000 ft
Point de rosée 23 ° F
Humidité 75%
Précipitations 0.00 pouce
Profondeur de la couche neigeuse Non disponible.
UV 0 sur 12
Pollen Non disponible.
Qualité de l'air Non disponible.
Flu Activity Sporadic
METAR PAOT 211153Z 00000KT 10SM OVC060 M01/M05 A2949 RMK AO2 SLP987 T10111050 11006 21017 53013

More Conditions Fewer Conditions

10-Day Weather Forecast

Almanac

Astronomie

Oct. 21, 2014 Lever Coucher
Temps réel 10:08 AKDT 19:01 AKDT
Crépuscule civil 09:14 AKDT 19:55 AKDT
Crépuscule nautique 08:14 AKDT 20:54 AKDT
Crépuscule astronomique 07:14 AKDT 21:54 AKDT
Lune 07:17 AKDT 18:38 AKDT
Durée de lumière visible 10h 40m
Longueur du jour
8h 52m
Tomorrow will be 7m 12s shorter.
Lune descendante, 6% of the Moon is Illuminated
Aujourd'hui
Lune descendante
Oct 23
Nouveau
Oct 30
Premier quartier
Nov 6
Pleine lune
Nov 14
Dernier quartier

Extrêmes aujourd'hui

State Highs State Lows

Community

WunderPhotos

Upload Photos

1,763,631 Photos téléchargées !

Nearby

Qualité de l'air

Not available.

Épaisseur de neige

Station Depth Altitude
Rocky Point 2 in 500 ft
Gobblers Knob 1 in 2030 ft
Coldfoot 4 in 1040 ft
Atigun Pass 13 in 4800 ft
Imnaviat Creek 21 in 3050 ft

Activité sismique

Ville Distance Mag. Time & Date
No recent earthquake activity has been reported nearby.
Minimum magnitude displayed is 2.5.

Températures des eaux côtières

Lieu Température
Aucun rapport de station

Stations météo à proximité